createdAt,value
2023-03-16T00:00:16.628Z,10.00
2023-03-16T00:02:45.139Z,9.33
2023-03-16T00:05:13.311Z,9.83
2023-03-16T00:07:42.000Z,11.30
2023-03-16T00:10:10.124Z,11.60
2023-03-16T00:12:36.779Z,10.63
2023-03-16T00:15:04.608Z,12.10
2023-03-16T00:17:31.220Z,7.60
2023-03-16T00:19:57.872Z,8.57
2023-03-16T00:22:27.614Z,9.97
2023-03-16T00:24:54.673Z,8.20
2023-03-16T00:27:22.955Z,8.77
2023-03-16T00:29:55.706Z,9.77
2023-03-16T00:32:28.451Z,11.93
2023-03-16T00:34:55.859Z,8.90
2023-03-16T00:37:23.920Z,9.70
2023-03-16T00:39:51.412Z,9.67
2023-03-16T00:42:19.438Z,9.77
2023-03-16T00:44:46.171Z,8.43
2023-03-16T00:47:17.196Z,8.27
2023-03-16T00:49:44.414Z,8.07
2023-03-16T00:52:16.275Z,10.23
2023-03-16T00:54:44.210Z,7.47
2023-03-16T00:57:12.274Z,7.73
2023-03-16T00:59:38.918Z,8.50
2023-03-16T01:02:07.527Z,9.37
2023-03-16T01:04:36.057Z,8.57
2023-03-16T01:07:07.087Z,7.83
2023-03-16T01:09:37.138Z,7.73
2023-03-16T01:12:12.836Z,8.57
2023-03-16T01:14:40.133Z,9.37
2023-03-16T01:17:09.035Z,7.80
2023-03-16T01:19:36.852Z,7.33
2023-03-16T01:22:04.654Z,9.20
2023-03-16T01:24:31.499Z,7.97
2023-03-16T01:26:58.190Z,8.67
2023-03-16T01:29:25.244Z,9.50
2023-03-16T01:31:51.922Z,8.00
2023-03-16T01:34:18.803Z,10.20
2023-03-16T01:36:48.226Z,11.63
2023-03-16T01:39:15.306Z,15.07
2023-03-16T01:41:42.366Z,13.27
2023-03-16T01:44:17.955Z,17.70
2023-03-16T01:46:44.563Z,17.60
2023-03-16T01:49:12.437Z,14.97
2023-03-16T01:51:46.026Z,17.40
2023-03-16T01:54:22.003Z,19.93
2023-03-16T01:57:18.039Z,17.60
2023-03-16T01:59:52.496Z,18.83
2023-03-16T02:02:21.483Z,16.70
2023-03-16T02:04:56.581Z,17.00
2023-03-16T02:07:24.840Z,17.73
2023-03-16T02:09:54.984Z,19.47
2023-03-16T02:12:21.726Z,19.03
2023-03-16T02:14:49.708Z,18.80
2023-03-16T02:17:18.653Z,20.23
2023-03-16T02:20:10.324Z,19.47
2023-03-16T02:22:39.767Z,16.67
2023-03-16T02:25:06.728Z,19.43
2023-03-16T02:27:42.180Z,18.87
2023-03-16T02:30:19.632Z,17.47
2023-03-16T02:32:47.446Z,16.73
2023-03-16T02:35:14.333Z,19.37
2023-03-16T02:37:41.912Z,16.53
2023-03-16T02:40:29.006Z,15.87
2023-03-16T02:43:03.440Z,13.63
2023-03-16T02:45:40.405Z,16.67
2023-03-16T02:48:14.626Z,16.40
2023-03-16T02:50:49.448Z,14.93
2023-03-16T02:53:16.222Z,16.77
2023-03-16T02:55:43.074Z,15.60
2023-03-16T02:58:09.994Z,15.30
2023-03-16T03:00:36.614Z,16.73
2023-03-16T03:03:03.538Z,13.93
2023-03-16T03:05:30.453Z,16.10
2023-03-16T03:07:57.110Z,14.93
2023-03-16T03:10:23.676Z,14.53
2023-03-16T03:12:50.331Z,14.67
2023-03-16T03:15:18.313Z,15.70
2023-03-16T03:17:45.118Z,15.00
2023-03-16T03:20:19.860Z,13.30
2023-03-16T03:22:48.635Z,14.20
2023-03-16T03:25:16.533Z,12.27
2023-03-16T03:27:44.335Z,11.40
2023-03-16T03:30:13.495Z,11.93
2023-03-16T03:32:40.790Z,10.77
2023-03-16T03:35:08.275Z,12.03
2023-03-16T03:37:35.048Z,10.40
2023-03-16T03:40:07.958Z,11.03
2023-03-16T03:42:34.569Z,13.57
2023-03-16T03:45:01.285Z,10.20
2023-03-16T03:47:27.877Z,9.40
2023-03-16T03:49:54.453Z,8.60
2023-03-16T03:52:21.025Z,10.43
2023-03-16T03:54:47.552Z,9.63
2023-03-16T03:57:14.113Z,8.07
2023-03-16T03:59:43.861Z,7.10
2023-03-16T04:02:11.431Z,11.27
2023-03-16T04:04:38.193Z,10.20
2023-03-16T04:07:04.904Z,10.77
2023-03-16T04:09:34.071Z,8.83
2023-03-16T04:12:01.955Z,8.67
2023-03-16T04:14:29.244Z,8.63
2023-03-16T04:16:56.559Z,7.87
2023-03-16T04:19:24.364Z,8.93
2023-03-16T04:21:51.797Z,8.60
2023-03-16T04:24:18.677Z,8.90
2023-03-16T04:26:45.400Z,9.73
2023-03-16T04:29:14.272Z,7.10
2023-03-16T04:31:42.392Z,8.53
2023-03-16T04:34:09.302Z,9.30
2023-03-16T04:36:35.918Z,10.77
2023-03-16T04:39:02.646Z,7.10
2023-03-16T04:41:29.221Z,12.07
2023-03-16T04:43:57.712Z,9.20
2023-03-16T04:46:26.590Z,8.40
2023-03-16T04:48:53.872Z,8.87
2023-03-16T04:51:21.596Z,10.07
2023-03-16T04:53:48.205Z,7.60
2023-03-16T04:56:19.825Z,8.10
2023-03-16T04:58:48.519Z,8.07
2023-03-16T05:01:15.826Z,8.53
2023-03-16T05:03:43.690Z,13.50
2023-03-16T05:06:11.991Z,7.00
2023-03-16T05:08:38.593Z,14.03
2023-03-16T05:11:05.527Z,10.47
2023-03-16T05:13:32.233Z,12.17
2023-03-16T05:15:58.972Z,11.37
2023-03-16T05:18:25.811Z,10.97
2023-03-16T05:20:53.981Z,8.60
2023-03-16T05:23:21.060Z,11.37
2023-03-16T05:25:49.197Z,8.67
2023-03-16T05:28:16.732Z,11.73
2023-03-16T05:30:45.192Z,12.17
2023-03-16T05:33:12.517Z,14.93
2023-03-16T05:35:39.210Z,12.50
2023-03-16T05:38:05.897Z,13.40
2023-03-16T05:40:33.247Z,16.33
2023-03-16T05:43:00.693Z,16.23
2023-03-16T05:45:28.110Z,12.27
2023-03-16T05:47:54.862Z,11.70
2023-03-16T05:50:21.670Z,9.47
2023-03-16T05:52:48.342Z,14.43
2023-03-16T05:55:16.903Z,14.50
2023-03-16T05:57:44.454Z,13.90
2023-03-16T06:00:16.001Z,11.67
2023-03-16T06:02:43.678Z,12.57
2023-03-16T06:05:11.247Z,14.80
2023-03-16T06:07:37.956Z,13.70
2023-03-16T06:10:05.958Z,13.97
2023-03-16T06:12:32.852Z,15.33
2023-03-16T06:14:59.529Z,13.33
2023-03-16T06:17:26.484Z,11.53
2023-03-16T06:19:53.072Z,11.13
2023-03-16T06:22:19.698Z,16.60
2023-03-16T06:24:46.435Z,10.73
2023-03-16T06:27:13.183Z,15.83
2023-03-16T06:29:39.903Z,7.37
2023-03-16T06:32:06.549Z,10.77
2023-03-16T06:34:35.076Z,12.20
2023-03-16T06:37:03.976Z,9.50
2023-03-16T06:39:30.995Z,9.47
2023-03-16T06:41:58.262Z,12.43
2023-03-16T06:44:24.992Z,10.53
2023-03-16T06:46:51.593Z,11.13
2023-03-16T06:49:18.256Z,9.63
2023-03-16T06:51:44.887Z,13.00
2023-03-16T06:54:11.859Z,12.00
2023-03-16T06:56:38.490Z,9.27
2023-03-16T06:59:05.114Z,17.30
2023-03-16T07:01:31.924Z,18.93
2023-03-16T07:03:58.578Z,9.87
2023-03-16T07:06:25.296Z,11.07
2023-03-16T07:08:51.949Z,7.77
2023-03-16T07:11:18.625Z,6.47
2023-03-16T07:13:45.378Z,10.17
2023-03-16T07:16:12.114Z,7.00
2023-03-16T07:18:39.982Z,14.87
2023-03-16T07:21:06.788Z,8.47
2023-03-16T07:23:33.407Z,7.13
2023-03-16T07:26:00.941Z,6.47
2023-03-16T07:28:28.131Z,7.27
2023-03-16T07:31:03.430Z,10.03
2023-03-16T07:33:32.366Z,7.33
2023-03-16T07:35:59.631Z,7.50
2023-03-16T07:38:26.290Z,7.80
2023-03-16T07:40:52.853Z,5.97
2023-03-16T07:43:19.569Z,6.33
2023-03-16T07:45:51.366Z,5.80
2023-03-16T07:48:18.588Z,4.03
2023-03-16T07:50:47.541Z,5.13
2023-03-16T07:53:15.686Z,8.13
2023-03-16T07:55:43.232Z,7.30
2023-03-16T07:58:11.042Z,5.10
2023-03-16T08:00:38.003Z,6.23
2023-03-16T08:03:04.988Z,5.87
2023-03-16T08:05:34.572Z,4.53
2023-03-16T08:08:04.033Z,5.63
2023-03-16T08:10:31.484Z,6.03
2023-03-16T08:12:58.442Z,7.17
2023-03-16T08:15:25.125Z,6.00
2023-03-16T08:17:52.561Z,7.37
2023-03-16T08:20:19.345Z,6.83
2023-03-16T08:22:46.901Z,5.17
2023-03-16T08:25:14.737Z,6.20
2023-03-16T08:27:43.184Z,7.87
2023-03-16T08:30:11.784Z,7.50
2023-03-16T08:32:42.017Z,7.17
2023-03-16T08:35:10.655Z,5.27
2023-03-16T08:37:37.432Z,5.43
2023-03-16T08:40:06.557Z,4.00
2023-03-16T08:42:33.196Z,3.80
2023-03-16T08:45:03.297Z,4.10
2023-03-16T08:47:31.044Z,4.87
2023-03-16T08:49:57.684Z,6.70
2023-03-16T08:52:24.262Z,3.50
2023-03-16T08:55:02.319Z,4.23
2023-03-16T08:57:29.834Z,6.13
2023-03-16T08:59:56.444Z,4.63
2023-03-16T09:02:23.109Z,3.70
2023-03-16T09:04:49.982Z,5.10
2023-03-16T09:07:16.922Z,4.63
2023-03-16T09:09:44.124Z,1.23
2023-03-16T09:12:11.403Z,0.20
2023-03-16T09:14:38.668Z,0.20
2023-03-16T09:17:07.784Z,0.20
2023-03-16T09:19:50.184Z,0.20
2023-03-16T09:22:19.728Z,0.20
2023-03-16T09:24:46.931Z,0.30
2023-03-16T09:27:13.553Z,0.20
2023-03-16T09:29:41.171Z,0.20
2023-03-16T09:32:08.620Z,0.20
2023-03-16T09:34:35.432Z,0.20
2023-03-16T09:37:02.641Z,0.17
2023-03-16T09:39:29.282Z,0.23
2023-03-16T09:42:04.413Z,0.20
2023-03-16T09:44:52.836Z,0.23
2023-03-16T09:47:26.552Z,0.17
2023-03-16T09:50:00.141Z,0.20
2023-03-16T09:52:41.840Z,0.30
2023-03-16T09:55:27.689Z,0.20
2023-03-16T09:57:54.792Z,0.10
2023-03-16T10:00:24.245Z,0.23
2023-03-16T10:03:13.921Z,0.20
2023-03-16T10:05:41.069Z,0.20
2023-03-16T10:08:22.217Z,0.20
2023-03-16T10:10:55.146Z,0.20
2023-03-16T10:13:33.211Z,0.20
2023-03-16T10:16:04.832Z,0.20
2023-03-16T10:18:36.303Z,0.27
2023-03-16T10:21:03.486Z,0.20
2023-03-16T10:23:31.974Z,0.20
2023-03-16T10:25:58.524Z,0.20
2023-03-16T10:28:27.024Z,0.20
2023-03-16T10:30:55.988Z,0.17
2023-03-16T10:33:31.544Z,0.30
2023-03-16T10:35:58.072Z,0.20
2023-03-16T10:38:33.056Z,0.30
2023-03-16T10:41:00.818Z,0.20
2023-03-16T10:43:29.266Z,0.20
2023-03-16T10:46:02.480Z,0.20
2023-03-16T10:48:34.077Z,0.30
2023-03-16T10:51:05.909Z,0.20
2023-03-16T10:53:35.748Z,0.20
2023-03-16T10:56:14.002Z,0.20
2023-03-16T10:58:42.802Z,0.20
2023-03-16T11:01:26.905Z,0.20
2023-03-16T11:03:57.104Z,0.20
2023-03-16T11:06:30.684Z,0.30
2023-03-16T11:09:08.840Z,0.30
2023-03-16T11:11:36.264Z,0.30
2023-03-16T11:14:04.832Z,0.20
2023-03-16T11:16:41.606Z,0.20
2023-03-16T11:19:30.126Z,0.20
2023-03-16T11:22:02.862Z,0.20
2023-03-16T11:24:39.904Z,0.30
2023-03-16T11:27:32.183Z,0.20
2023-03-16T11:30:20.102Z,0.43
2023-03-16T11:32:50.543Z,0.20
2023-03-16T11:35:20.668Z,0.20
2023-03-16T11:37:51.872Z,0.10
2023-03-16T11:40:38.598Z,0.30
2023-03-16T11:43:32.848Z,0.20
2023-03-16T11:46:21.363Z,0.30
2023-03-16T11:49:11.349Z,0.20
2023-03-16T11:51:56.708Z,0.20
2023-03-16T11:54:40.390Z,0.20
2023-03-16T11:57:34.068Z,0.20
2023-03-16T12:00:28.373Z,0.30
2023-03-16T12:03:05.061Z,0.20
2023-03-16T12:05:46.093Z,0.27
2023-03-16T12:08:24.673Z,0.30
2023-03-16T12:11:03.365Z,0.20
2023-03-16T12:13:58.165Z,0.20
2023-03-16T12:16:48.402Z,0.30
2023-03-16T12:19:36.190Z,0.30
2023-03-16T12:22:08.915Z,0.20
2023-03-16T12:24:42.772Z,0.70
2023-03-16T12:27:16.031Z,0.20
2023-03-16T12:29:55.802Z,0.60
2023-03-16T12:32:47.116Z,0.23
2023-03-16T12:35:13.738Z,0.20
2023-03-16T12:38:04.615Z,0.30
2023-03-16T12:40:40.587Z,0.47
2023-03-16T12:43:33.104Z,0.10
2023-03-16T12:46:18.668Z,0.20
2023-03-16T12:48:49.244Z,0.30
2023-03-16T12:51:15.959Z,0.30
2023-03-16T12:53:51.960Z,0.20
2023-03-16T12:56:20.386Z,0.20
2023-03-16T12:58:50.974Z,0.20
2023-03-16T13:01:28.304Z,0.20
2023-03-16T13:04:22.038Z,0.30
2023-03-16T13:06:51.719Z,0.20
2023-03-16T13:09:22.944Z,0.20
2023-03-16T13:11:53.392Z,0.20
2023-03-16T13:14:41.829Z,0.30
2023-03-16T13:17:17.444Z,0.23
2023-03-16T13:19:46.669Z,0.30
2023-03-16T13:22:22.532Z,0.30
2023-03-16T13:24:55.998Z,4.07
2023-03-16T13:27:33.539Z,0.20
2023-03-16T13:30:03.550Z,0.20
2023-03-16T13:32:33.390Z,0.30
2023-03-16T13:35:02.265Z,0.20
2023-03-16T13:37:30.268Z,0.27
2023-03-16T13:40:04.695Z,1.30
2023-03-16T13:42:32.757Z,0.40
2023-03-16T13:45:10.967Z,0.20
2023-03-16T13:47:37.950Z,0.20
2023-03-16T13:50:05.138Z,0.20
2023-03-16T13:52:34.387Z,0.40
2023-03-16T13:55:03.997Z,1.33
2023-03-16T13:57:33.248Z,0.40
2023-03-16T14:00:18.925Z,0.30
2023-03-16T14:02:48.896Z,0.20
2023-03-16T14:05:22.890Z,0.10
2023-03-16T14:07:51.167Z,0.30
2023-03-16T14:10:18.164Z,0.27
2023-03-16T14:12:56.400Z,0.30
2023-03-16T14:15:26.206Z,0.20
2023-03-16T14:17:53.797Z,0.30
2023-03-16T14:20:23.269Z,0.20
2023-03-16T14:22:53.499Z,0.30
2023-03-16T14:25:25.464Z,0.30
2023-03-16T14:28:02.161Z,0.20
2023-03-16T14:30:30.359Z,0.50
2023-03-16T14:33:05.740Z,0.30
2023-03-16T14:35:44.049Z,0.40
2023-03-16T14:38:32.015Z,0.47
2023-03-16T14:41:09.662Z,0.87
2023-03-16T14:43:39.048Z,0.20
2023-03-16T14:46:07.478Z,0.23
2023-03-16T14:48:35.711Z,0.20
2023-03-16T14:51:03.427Z,0.20
2023-03-16T14:53:30.798Z,0.17
2023-03-16T14:55:58.567Z,0.20
2023-03-16T14:58:25.687Z,0.20
2023-03-16T15:00:53.571Z,0.20
2023-03-16T15:03:22.848Z,0.20
2023-03-16T15:05:51.062Z,0.20
2023-03-16T15:08:21.733Z,0.20
2023-03-16T15:10:49.251Z,0.23
2023-03-16T15:13:34.893Z,0.20
2023-03-16T15:16:04.361Z,0.20
2023-03-16T15:18:32.086Z,0.43
2023-03-16T15:20:59.025Z,0.50
2023-03-16T15:23:26.131Z,0.20
2023-03-16T15:25:58.453Z,0.20
2023-03-16T15:28:26.763Z,0.33
2023-03-16T15:30:55.872Z,0.30
2023-03-16T15:33:23.046Z,0.20
2023-03-16T15:35:51.418Z,0.63
2023-03-16T15:38:36.681Z,0.20
2023-03-16T15:41:03.434Z,0.30
2023-03-16T15:43:31.977Z,0.23
2023-03-16T15:45:59.967Z,0.10
2023-03-16T15:48:27.128Z,0.20
2023-03-16T15:51:02.499Z,0.57
2023-03-16T15:53:38.853Z,0.30
2023-03-16T15:56:17.488Z,0.63
2023-03-16T15:58:48.097Z,0.30
2023-03-16T16:01:22.527Z,0.30
2023-03-16T16:03:51.130Z,0.17
2023-03-16T16:06:18.239Z,0.20
2023-03-16T16:08:44.833Z,0.27
2023-03-16T16:11:17.120Z,0.20
2023-03-16T16:13:45.141Z,0.23
2023-03-16T16:16:18.828Z,0.20
2023-03-16T16:18:46.714Z,0.20
2023-03-16T16:21:19.242Z,0.20
2023-03-16T16:23:46.630Z,0.40
2023-03-16T16:26:46.978Z,0.97
2023-03-16T16:29:16.294Z,2.47
2023-03-16T16:31:43.449Z,0.20
2023-03-16T16:34:14.368Z,0.50
2023-03-16T16:36:41.114Z,0.23
2023-03-16T16:39:08.027Z,0.40
2023-03-16T16:41:36.067Z,0.20
2023-03-16T16:44:08.282Z,0.30
2023-03-16T16:46:43.907Z,0.20
2023-03-16T16:49:31.009Z,0.20
2023-03-16T16:51:58.544Z,0.20
2023-03-16T16:54:28.613Z,0.30
2023-03-16T16:56:56.441Z,0.27
2023-03-16T16:59:25.543Z,0.20
2023-03-16T17:01:54.055Z,0.30
2023-03-16T17:04:23.805Z,0.20
2023-03-16T17:06:55.662Z,0.20
2023-03-16T17:09:23.305Z,0.27
2023-03-16T17:11:51.290Z,0.10
2023-03-16T17:14:20.652Z,0.30
2023-03-16T17:16:48.538Z,0.20
2023-03-16T17:19:27.189Z,0.20
2023-03-16T17:21:56.222Z,0.20
2023-03-16T17:24:23.317Z,0.37
2023-03-16T17:26:55.378Z,0.20
2023-03-16T17:29:25.650Z,0.20
2023-03-16T17:31:52.509Z,2.97
2023-03-16T17:34:21.767Z,7.17
2023-03-16T17:36:48.365Z,0.20
2023-03-16T17:39:18.983Z,0.60
2023-03-16T17:41:45.977Z,0.20
2023-03-16T17:44:14.249Z,0.20
2023-03-16T17:46:41.488Z,0.20
2023-03-16T17:49:18.308Z,0.20
2023-03-16T17:51:45.879Z,0.20
2023-03-16T17:54:12.556Z,0.20
2023-03-16T17:56:40.406Z,0.20
2023-03-16T17:59:17.514Z,0.20
2023-03-16T18:01:46.180Z,0.30
2023-03-16T18:04:31.117Z,0.20
2023-03-16T18:06:58.394Z,0.30
2023-03-16T18:09:25.054Z,0.20
2023-03-16T18:11:51.899Z,0.30
2023-03-16T18:14:36.233Z,0.20
2023-03-16T18:17:21.716Z,0.20
2023-03-16T18:19:48.965Z,0.10
2023-03-16T18:22:20.436Z,0.30
2023-03-16T18:24:48.632Z,0.20
2023-03-16T18:27:15.948Z,0.20
2023-03-16T18:29:45.644Z,0.20
2023-03-16T18:32:21.712Z,0.20
2023-03-16T18:34:48.449Z,0.20
2023-03-16T18:37:26.242Z,0.30
2023-03-16T18:39:53.359Z,0.20
2023-03-16T18:42:21.988Z,0.20
2023-03-16T18:44:49.051Z,0.30
2023-03-16T18:47:21.240Z,0.20
2023-03-16T18:49:51.567Z,0.20
2023-03-16T18:52:26.290Z,0.17
2023-03-16T18:54:53.402Z,0.20
2023-03-16T18:57:22.344Z,0.20
2023-03-16T18:59:49.780Z,0.20
2023-03-16T19:02:39.014Z,0.50
2023-03-16T19:05:11.289Z,0.27
2023-03-16T19:07:41.483Z,0.30
2023-03-16T19:10:22.157Z,0.20
2023-03-16T19:12:49.777Z,0.30
2023-03-16T19:15:19.863Z,0.10
2023-03-16T19:17:47.832Z,0.20
2023-03-16T19:20:16.745Z,0.20
2023-03-16T19:22:45.512Z,0.20
2023-03-16T19:25:33.047Z,0.20
2023-03-16T19:28:00.228Z,0.30
2023-03-16T19:30:28.891Z,0.40
2023-03-16T19:32:56.546Z,0.27
2023-03-16T19:35:33.177Z,0.20
2023-03-16T19:38:08.466Z,0.30
2023-03-16T19:40:35.176Z,0.43
2023-03-16T19:43:01.839Z,0.30
2023-03-16T19:45:36.226Z,0.20
2023-03-16T19:48:02.870Z,0.20
2023-03-16T19:50:29.696Z,0.43
2023-03-16T19:53:00.156Z,0.30
2023-03-16T19:55:31.597Z,2.40
2023-03-16T19:58:04.247Z,0.20
2023-03-16T20:00:31.479Z,0.40
2023-03-16T20:02:58.915Z,0.20
2023-03-16T20:05:31.120Z,0.30
2023-03-16T20:07:59.341Z,0.20
2023-03-16T20:10:28.249Z,0.33
2023-03-16T20:12:57.648Z,0.20
2023-03-16T20:15:28.938Z,0.10
2023-03-16T20:17:55.842Z,0.20
2023-03-16T20:20:24.222Z,0.27
2023-03-16T20:22:51.119Z,0.20
2023-03-16T20:25:17.761Z,0.23
2023-03-16T20:27:45.918Z,0.30
2023-03-16T20:30:17.964Z,0.30
2023-03-16T20:32:45.793Z,0.20
2023-03-16T20:35:33.687Z,0.30
2023-03-16T20:38:00.438Z,0.20
2023-03-16T20:40:27.143Z,0.40
2023-03-16T20:42:53.738Z,0.20
2023-03-16T20:45:25.771Z,0.30
2023-03-16T20:47:52.908Z,0.20
2023-03-16T20:50:25.748Z,0.20
2023-03-16T20:52:53.692Z,0.20
2023-03-16T20:55:23.092Z,0.30
2023-03-16T20:57:51.006Z,0.20
2023-03-16T21:00:21.677Z,0.20
2023-03-16T21:02:48.242Z,0.20
2023-03-16T21:05:15.962Z,0.23
2023-03-16T21:07:42.662Z,0.10
2023-03-16T21:10:11.239Z,0.20
2023-03-16T21:12:39.616Z,0.20
2023-03-16T21:15:17.778Z,0.30
2023-03-16T21:17:44.397Z,0.20
2023-03-16T21:20:19.387Z,0.40
2023-03-16T21:22:46.678Z,0.20
2023-03-16T21:25:31.765Z,0.30
2023-03-16T21:28:03.195Z,0.20
2023-03-16T21:30:35.111Z,0.43
2023-03-16T21:33:04.113Z,0.20
2023-03-16T21:35:33.630Z,0.20
2023-03-16T21:38:01.545Z,0.10
2023-03-16T21:40:28.380Z,0.37
2023-03-16T21:42:55.148Z,0.20
2023-03-16T21:45:21.773Z,1.07
2023-03-16T21:47:48.628Z,0.30
2023-03-16T21:50:18.186Z,0.13
2023-03-16T21:52:44.849Z,0.20
2023-03-16T21:55:30.171Z,0.10
2023-03-16T21:57:57.842Z,0.20
2023-03-16T22:00:30.545Z,0.40
2023-03-16T22:02:59.016Z,0.20
2023-03-16T22:05:38.527Z,0.20
2023-03-16T22:08:27.145Z,0.20
2023-03-16T22:10:54.743Z,0.20
2023-03-16T22:13:21.678Z,0.20
2023-03-16T22:15:51.555Z,0.13
2023-03-16T22:18:36.788Z,0.30
2023-03-16T22:21:22.638Z,0.20
2023-03-16T22:23:49.401Z,0.20
2023-03-16T22:26:18.238Z,0.13
2023-03-16T22:28:46.630Z,0.20
2023-03-16T22:31:16.563Z,0.20
2023-03-16T22:33:43.998Z,0.20
2023-03-16T22:36:12.852Z,0.20
2023-03-16T22:38:40.330Z,0.63
2023-03-16T22:41:07.293Z,0.20
2023-03-16T22:43:36.349Z,0.20
2023-03-16T22:46:03.339Z,0.20
2023-03-16T22:48:31.463Z,0.23
2023-03-16T22:51:01.943Z,0.20
2023-03-16T22:53:37.206Z,0.20
2023-03-16T22:56:04.915Z,0.27
2023-03-16T22:58:41.898Z,0.30
2023-03-16T23:01:17.191Z,0.20
2023-03-16T23:03:48.366Z,0.27
2023-03-16T23:06:20.524Z,0.20
2023-03-16T23:08:47.797Z,0.20
2023-03-16T23:11:26.115Z,0.27
2023-03-16T23:13:54.314Z,0.20
2023-03-16T23:16:26.383Z,0.17
2023-03-16T23:18:53.354Z,0.20
2023-03-16T23:21:22.788Z,0.20
2023-03-16T23:24:02.721Z,0.20
2023-03-16T23:26:30.991Z,0.30
2023-03-16T23:28:57.975Z,0.20
2023-03-16T23:31:25.888Z,0.20
2023-03-16T23:33:52.554Z,0.20
2023-03-16T23:36:22.135Z,0.20
2023-03-16T23:38:49.490Z,0.20
2023-03-16T23:41:19.018Z,0.30
2023-03-16T23:43:46.209Z,0.20
2023-03-16T23:46:14.674Z,0.20
2023-03-16T23:48:42.930Z,0.10
2023-03-16T23:51:21.342Z,0.20
2023-03-16T23:53:48.895Z,0.20
2023-03-16T23:56:15.548Z,0.30
2023-03-16T23:58:42.186Z,0.20
